Time;durP1;ratioP1;P1;durP2;ratioP2;P2;SDS_P1;SDS_P2;PMS_P1;PMS_P2;Temp;Humidity;BMP_temperature;BMP_pressure;BME280_temperature;BME280_humidity;BME280_pressure;Samples;Min_cycle;Max_cycle;Signal;HPM_P1;HPM_P2
2022/10/11 00:02:15;;;;;;;22.65;11.18;;;;;;;3.88;100.00;102374.53;5353400;27;20080;-84
2022/10/11 00:04:46;;;;;;;17.30;9.40;;;;;;;3.66;100.00;102385.94;5353495;27;20134;-84
2022/10/11 00:07:18;;;;;;;23.35;9.18;;;;;;;3.73;100.00;102384.75;5326627;27;20030;-85
2022/10/11 00:09:50;;;;;;;22.77;8.93;;;;;;;3.51;100.00;102405.00;5342649;27;20054;-85
2022/10/11 00:12:22;;;;;;;15.85;7.63;;;;;;;3.16;100.00;102362.38;5340076;27;20063;-84
2022/10/11 00:14:53;;;;;;;19.48;8.02;;;;;;;3.40;100.00;102397.47;5348571;27;20028;-85
2022/10/11 00:17:25;;;;;;;14.80;8.75;;;;;;;3.44;100.00;102372.72;5347721;27;20397;-85
2022/10/11 00:19:56;;;;;;;18.83;10.23;;;;;;;3.52;100.00;102386.47;5346122;27;20050;-85
2022/10/11 00:22:28;;;;;;;17.92;9.90;;;;;;;-145.45;100.00;62759.84;5338529;27;20028;-85
2022/10/11 00:24:59;;;;;;;16.48;9.30;;;;;;;3.69;100.00;102375.25;5323952;27;20035;-85
2022/10/11 00:27:32;;;;;;;25.38;10.25;;;;;;;3.95;100.00;102389.22;5325126;27;20027;-84
2022/10/11 00:30:05;;;;;;;25.95;10.80;;;;;;;4.00;100.00;102387.25;5346660;27;20088;-85
2022/10/11 00:32:38;;;;;;;24.63;12.23;;;;;;;3.86;100.00;102387.81;5326388;27;20042;-85
2022/10/11 00:35:10;;;;;;;27.48;13.02;;;;;;;4.14;100.00;102384.91;5327775;27;20028;-85
2022/10/11 00:37:41;;;;;;;21.30;11.75;;;;;;;4.25;100.00;102381.81;5323858;27;20032;-85
2022/10/11 00:40:19;;;;;;;34.17;13.82;;;;;;;4.43;100.00;102419.81;5343285;27;20024;-86
2022/10/11 00:42:50;;;;;;;26.35;12.48;;;;;;;4.13;100.00;102404.28;5342178;27;20027;-87
2022/10/11 00:45:28;;;;;;;23.92;11.57;;;;;;;4.12;100.00;102422.84;5327315;27;20062;-87
2022/10/11 00:48:15;;;;;;;25.30;11.48;;;;;;;3.94;100.00;102400.69;5326562;27;20034;-86
2022/10/11 00:51:09;;;;;;;18.55;9.68;;;;;;;3.87;100.00;102423.81;5342651;27;20027;-86
2022/10/11 00:53:41;;;;;;;25.42;10.02;;;;;;;3.68;100.00;102418.44;5324475;27;20035;-86
2022/10/11 00:56:22;;;;;;;22.42;10.15;;;;;;;3.60;100.00;102431.03;5342899;27;20044;-86
2022/10/11 00:58:55;;;;;;;21.90;9.43;;;;;;;3.29;100.00;102412.84;5322855;27;20450;-86
2022/10/11 01:01:32;;;;;;;20.00;9.07;;;;;;;3.26;100.00;102399.78;5348923;27;20085;-86
2022/10/11 01:04:04;;;;;;;24.27;9.65;;;;;;;2.98;100.00;102401.66;5358802;27;20035;-85
2022/10/11 01:06:35;;;;;;;24.92;9.20;;;;;;;3.17;100.00;102430.00;5343415;27;20040;-86
2022/10/11 01:09:08;;;;;;;20.65;9.18;;;;;;;3.06;100.00;102418.97;5358165;27;20028;-86
2022/10/11 01:11:42;;;;;;;21.30;9.63;;;;;;;3.09;100.00;102437.34;5356089;27;20118;-85
2022/10/11 01:14:16;;;;;;;28.88;8.77;;;;;;;2.96;100.00;102432.50;5337989;27;20044;-85
2022/10/11 01:17:11;;;;;;;20.58;8.50;;;;;;;2.76;100.00;102425.28;5359286;27;20061;-85
2022/10/11 01:20:13;;;;;;;23.73;9.15;;;;;;;2.49;100.00;102410.41;5347130;27;20081;-86
2022/10/11 01:23:09;;;;;;;16.75;9.13;;;;;;;2.69;100.00;102436.94;5344208;27;20375;-86
2022/10/11 01:26:18;;;;;;;21.35;9.43;;;;;;;2.60;100.00;102429.34;5333500;27;20031;-85
2022/10/11 01:28:58;;;;;;;18.85;8.30;;;;;;;2.40;100.00;102412.44;5350431;27;20504;-85
2022/10/11 01:31:42;;;;;;;26.48;8.70;;;;;;;2.44;100.00;102435.13;5333615;27;20030;-85
2022/10/11 01:34:24;;;;;;;19.48;8.68;;;;;;;2.54;100.00;102442.72;5341501;27;20028;-85
2022/10/11 01:37:16;;;;;;;14.98;8.27;;;;;;;2.50;100.00;102444.59;5324125;27;20060;-86
2022/10/11 01:40:02;;;;;;;19.67;8.45;;;;;;;2.56;100.00;102440.88;5343063;27;20032;-86
2022/10/11 01:42:39;;;;;;;14.90;8.50;;;;;;;2.50;100.00;102446.38;5323076;27;20101;-86
2022/10/11 01:45:18;;;;;;;16.05;7.80;;;;;;;2.21;100.00;102442.91;5346888;27;20028;-85
2022/10/11 01:48:10;;;;;;;14.40;7.60;;;;;;;2.21;100.00;102433.25;5332340;27;20058;-86
2022/10/11 01:51:03;;;;;;;20.25;8.85;;;;;;;2.38;100.00;102443.22;5347307;27;20394;-87
2022/10/11 01:53:39;;;;;;;21.35;8.00;;;;;;;2.45;100.00;102442.13;5333228;27;20078;-87
2022/10/11 01:56:29;;;;;;;;;;;;;;;2.48;100.00;102454.31;5320200;27;20088;-87
2022/10/11 01:59:35;;;;;;;21.40;9.35;;;;;;;2.84;100.00;102449.59;5320785;27;19916;-87
2022/10/11 02:02:31;;;;;;;19.23;9.70;;;;;;;2.53;100.00;102455.03;5323835;27;20062;-87
2022/10/11 02:05:29;;;;;;;20.10;8.65;;;;;;;2.44;100.00;102458.00;5322147;27;20043;-85
2022/10/11 02:08:37;;;;;;;14.80;7.55;;;;;;;2.31;100.00;102454.88;5339755;27;20023;-85
2022/10/11 02:11:31;;;;;;;21.35;8.85;;;;;;;2.30;100.00;102460.19;5340668;27;20076;-85
2022/10/11 02:14:12;;;;;;;19.85;9.18;;;;;;;2.25;100.00;102453.31;5325392;27;20536;-86
2022/10/11 02:17:07;;;;;;;18.05;10.02;;;;;;;2.22;100.00;102460.44;5328332;27;20107;-86
2022/10/11 02:19:45;;;;;;;21.27;10.25;;;;;;;2.36;100.00;102457.38;5343379;27;20027;-85
2022/10/11 02:22:32;;;;;;;19.70;10.13;;;;;;;2.49;100.00;102465.72;5326521;27;20034;-85
2022/10/11 02:25:10;;;;;;;22.17;9.73;;;;;;;2.74;100.00;102460.50;5320925;27;20024;-86
2022/10/11 02:27:47;;;;;;;19.13;10.68;;;;;;;2.59;100.00;102435.53;5342525;27;20393;-85
2022/10/11 02:30:19;;;;;;;22.30;10.80;;;;;;;2.46;100.00;102440.34;5319276;27;20387;-85
2022/10/11 02:32:56;;;;;;;23.98;11.55;;;;;;;2.64;100.00;102452.91;5320310;27;20028;-86
2022/10/11 02:35:30;;;;;;;31.65;13.00;;;;;;;2.58;100.00;102468.06;5340192;27;20038;-85
2022/10/11 02:38:16;;;;;;;30.63;13.95;;;;;;;2.55;100.00;102470.81;5341797;27;20160;-85
2022/10/11 02:41:05;;;;;;;25.45;12.40;;;;;;;2.30;100.00;102447.00;5322388;27;20068;-85
2022/10/11 02:44:26;;;;;;;28.08;11.57;;;;;;;2.43;100.00;102469.41;5324520;27;20485;-85
2022/10/11 02:47:03;;;;;;;22.05;11.40;;;;;;;2.46;100.00;102441.22;5333741;27;20122;-85
2022/10/11 02:49:35;;;;;;;26.63;14.45;;;;;;;2.50;100.00;102449.88;5322627;27;20481;-85
2022/10/11 02:52:06;;;;;;;30.75;12.65;;;;;;;2.48;100.00;102462.22;5322962;27;20044;-85
2022/10/11 02:54:40;;;;;;;26.65;12.80;;;;;;;2.26;100.00;102436.59;5338459;27;20043;-85
2022/10/11 02:57:12;;;;;;;22.05;10.82;;;;;;;2.27;100.00;102450.63;5341502;27;20392;-84
2022/10/11 02:59:43;;;;;;;26.83;11.52;;;;;;;2.17;100.00;102446.56;5322777;27;20038;-80
2022/10/11 03:02:14;;;;;;;25.33;12.30;;;;;;;2.17;100.00;102455.31;5335787;27;20073;-80
2022/10/11 03:04:46;;;;;;;28.63;11.07;;;;;;;2.04;100.00;102475.06;5343297;27;20423;-81
2022/10/11 03:07:20;;;;;;;21.10;11.18;;;;;;;1.93;100.00;102458.72;5341552;27;20026;-88
2022/10/11 03:10:29;;;;;;;28.95;11.80;;;;;;;2.00;100.00;102473.41;5339806;27;20481;-87
2022/10/11 03:13:38;;;;;;;21.77;10.70;;;;;;;2.38;100.00;102472.19;5301040;27;20047;-87
2022/10/11 03:16:29;;;;;;;29.60;13.57;;;;;;;2.37;100.00;102473.13;5299370;28;20032;-87
2022/10/11 03:19:10;;;;;;;28.30;14.73;;;;;;;2.26;100.00;102465.56;5304678;28;20021;-88
2022/10/11 03:21:48;;;;;;;32.47;16.15;;;;;;;2.26;100.00;102483.13;4748570;28;12144140;-88
2022/10/11 03:24:23;;;;;;;30.98;15.52;;;;;;;-145.45;100.00;62759.84;5324756;28;20046;-88
2022/10/11 03:26:56;;;;;;;38.83;16.27;;;;;;;-145.45;100.00;62759.84;5324687;28;20028;-88
2022/10/11 03:29:35;;;;;;;33.42;17.10;;;;;;;2.18;100.00;102446.50;5325685;28;20032;-87
2022/10/11 03:36:07;;;;;;;35.97;15.30;;;;;;;2.25;100.00;102474.38;5048141;28;3102274;-88
2022/10/11 03:39:03;;;;;;;35.17;17.55;;;;;;;2.52;100.00;102487.56;5287440;28;463565;-88
2022/10/11 03:42:02;;;;;;;40.33;18.70;;;;;;;2.40;100.00;102457.22;5292638;28;746239;-88
2022/10/11 03:44:56;;;;;;;44.65;20.73;;;;;;;2.40;100.00;102457.22;5302249;28;20060;-88
2022/10/11 03:47:38;;;;;;;50.03;22.50;;;;;;;2.61;100.00;102500.44;5304162;28;20060;-87
2022/10/11 03:56:51;;;;;;;36.17;17.35;;;;;;;2.01;100.00;102485.66;5300063;28;20044;-87
2022/10/11 03:59:46;;;;;;;38.95;17.58;;;;;;;2.12;100.00;102496.72;5295673;28;20028;-87
2022/10/11 04:03:02;;;;;;;28.10;15.65;;;;;;;1.96;100.00;102506.84;5299874;28;20111;-87
2022/10/11 04:09:41;;;;;;;33.10;17.02;;;;;;;2.07;100.00;102506.53;5299911;28;20088;-88
2022/10/11 04:16:38;;;;;;;;;;;;;;;;;;;;;
2022/10/11 04:23:15;;;;;;;49.70;23.10;;;;;;;2.02;100.00;102477.72;5301089;27;20081;-88
2022/10/11 04:26:33;;;;;;;41.83;23.38;;;;;;;2.05;100.00;102493.44;5310969;28;20048;-88
2022/10/11 04:32:59;;;;;;;35.70;16.05;;;;;;;1.97;100.00;102508.59;5211110;28;20041;-88
2022/10/11 04:35:55;;;;;;;;;;;;;;;;;;;;;
2022/10/11 04:42:29;;;;;;;43.17;22.00;;;;;;;2.17;100.00;102536.06;5212417;28;20157;-88
2022/10/11 04:49:20;;;;;;;42.47;20.80;;;;;;;1.96;100.00;102527.03;5228695;28;20049;-87
2022/10/11 04:56:16;;;;;;;;;;;;;;;;;;;;;
2022/10/11 04:59:03;;;;;;;63.75;20.27;;;;;;;3.11;100.00;102538.34;5253444;28;41510;-87
2022/10/11 05:01:46;;;;;;;43.83;24.67;;;;;;;3.22;100.00;102542.28;5316366;27;20063;-87
2022/10/11 05:04:37;;;;;;;46.03;24.05;;;;;;;2.97;100.00;102504.53;5320699;27;20036;-88
2022/10/11 05:07:42;;;;;;;45.58;21.98;;;;;;;3.24;100.00;102513.25;5327825;27;20482;-87
2022/10/11 05:10:17;;;;;;;49.03;26.75;;;;;;;3.65;100.00;102541.72;5319035;27;20470;-87
2022/10/11 05:13:28;;;;;;;49.30;22.20;;;;;;;3.67;100.00;102538.09;5327618;27;20054;-87
2022/10/11 05:16:48;;;;;;;99.43;32.28;;;;;;;3.36;100.00;102544.47;5336775;27;20025;-87
2022/10/11 05:19:34;;;;;;;67.47;29.40;;;;;;;2.86;100.00;102546.19;5309015;28;20068;-87
2022/10/11 05:22:10;;;;;;;53.08;28.33;;;;;;;2.92;100.00;102552.13;5300151;28;20031;-87
2022/10/11 05:24:53;;;;;;;60.78;27.70;;;;;;;2.75;100.00;102547.44;5300046;28;20032;-87
2022/10/11 05:28:07;;;;;;;50.95;25.35;;;;;;;2.50;100.00;102541.22;5303244;28;20058;-87
2022/10/11 05:31:32;;;;;;;46.33;22.33;;;;;;;2.19;100.00;102534.25;5235956;28;20082;-86
2022/10/11 05:37:15;;;;;;;39.92;20.92;;;;;;;1.88;100.00;102527.28;5227247;28;20045;-85
2022/10/11 05:39:47;;;;;;;43.05;22.25;;;;;;;2.15;100.00;102548.44;5224076;28;20030;-86
2022/10/11 05:42:18;;;;;;;40.53;21.73;;;;;;;2.14;100.00;102544.06;5282699;28;20047;-82
2022/10/11 05:44:50;;;;;;;39.80;22.83;;;;;;;2.10;100.00;102561.72;5304236;28;20108;-81
2022/10/11 05:47:21;;;;;;;44.47;22.45;;;;;;;1.97;100.00;102560.38;5299603;28;20394;-81
2022/10/11 05:49:52;;;;;;;42.55;22.10;;;;;;;2.10;100.00;102552.97;5301189;28;20391;-81
2022/10/11 05:52:24;;;;;;;42.40;23.75;;;;;;;2.21;100.00;102561.38;5304391;28;20031;-81
2022/10/11 05:54:56;;;;;;;46.05;22.52;;;;;;;2.59;100.00;102565.47;5293310;28;20391;-81
2022/10/11 05:57:27;;;;;;;215.85;34.60;;;;;;;3.21;100.00;102563.47;5299609;28;20033;-86
2022/10/11 05:59:59;;;;;;;50.85;25.67;;;;;;;3.49;100.00;102566.00;5294497;28;20025;-82
2022/10/11 06:02:33;;;;;;;510.65;71.60;;;;;;;3.48;100.00;102568.69;5308002;28;20025;-85
2022/10/11 06:05:05;;;;;;;52.80;29.88;;;;;;;3.70;100.00;102581.97;5303779;28;20095;-85
2022/10/11 06:07:37;;;;;;;50.03;30.38;;;;;;;3.70;100.00;102580.22;5305609;28;20036;-85
2022/10/11 06:10:09;;;;;;;55.17;30.50;;;;;;;3.75;100.00;102573.00;5301302;28;20025;-84
2022/10/11 06:12:40;;;;;;;73.95;35.40;;;;;;;3.85;100.00;102577.94;5308679;27;20546;-86
2022/10/11 06:15:12;;;;;;;74.15;39.47;;;;;;;3.57;100.00;102579.78;5323219;27;20043;-86
2022/10/11 06:17:43;;;;;;;75.70;34.88;;;;;;;3.59;100.00;102588.53;5315536;27;20059;-86
2022/10/11 06:20:41;;;;;;;78.70;33.80;;;;;;;3.43;100.00;102589.09;5323934;27;20378;-86
2022/10/11 06:23:12;;;;;;;61.05;32.15;;;;;;;3.13;100.00;102582.19;5324232;27;20501;-85
2022/10/11 06:26:01;;;;;;;55.95;28.75;;;;;;;3.28;100.00;102574.66;5335358;27;20064;-86
2022/10/11 06:28:34;;;;;;;63.17;33.47;;;;;;;3.56;100.00;102609.72;5320628;27;20031;-86
2022/10/11 06:31:09;;;;;;;121.60;39.22;;;;;;;3.24;100.00;102608.19;5320343;27;20066;-85
2022/10/11 06:33:40;;;;;;;73.95;33.30;;;;;;;3.24;100.00;102604.69;5323925;27;20036;-86
2022/10/11 06:36:13;;;;;;;60.33;33.15;;;;;;;3.22;100.00;102604.75;5326530;27;20036;-86
2022/10/11 06:38:45;;;;;;;61.38;30.35;;;;;;;3.21;100.00;102592.50;5324184;27;20032;-86
2022/10/11 06:41:19;;;;;;;58.97;33.35;;;;;;;3.36;100.00;102612.19;5323751;27;20030;-86
2022/10/11 06:43:51;;;;;;;44.15;27.63;;;;;;;3.38;100.00;102608.59;5324053;27;20420;-85
2022/10/11 06:46:26;;;;;;;47.20;29.27;;;;;;;3.44;100.00;102586.41;5318980;27;20035;-86
2022/10/11 06:48:57;;;;;;;46.30;27.60;;;;;;;3.81;100.00;102616.78;5310012;27;20114;-85
2022/10/11 06:51:29;;;;;;;60.30;34.20;;;;;;;3.81;100.00;102618.56;5323596;27;20424;-86
2022/10/11 06:54:04;;;;;;;62.88;33.70;;;;;;;3.76;100.00;102585.25;5326984;27;20023;-85
2022/10/11 06:56:57;;;;;;;56.63;30.55;;;;;;;4.06;100.00;102622.00;5318094;27;20495;-85
2022/10/11 06:59:33;;;;;;;1002.47;124.63;;;;;;;4.32;100.00;102630.75;5316654;27;20055;-85
2022/10/11 07:02:07;;;;;;;66.38;38.38;;;;;;;4.78;100.00;102628.94;5317593;27;20043;-84
2022/10/11 07:04:39;;;;;;;1999.90;844.80;;;;;;;5.48;100.00;102619.88;5320566;27;20028;-85
2022/10/11 07:07:15;;;;;;;1999.90;531.95;;;;;;;6.70;100.00;102609.09;5319435;28;20024;-86
2022/10/11 07:09:49;;;;;;;1999.90;337.90;;;;;;;7.72;100.00;102634.06;5315561;27;20036;-86
2022/10/11 07:12:21;;;;;;;1999.90;433.65;;;;;;;9.03;100.00;102639.41;5316442;27;20110;-86
2022/10/11 07:14:52;;;;;;;1999.90;300.50;;;;;;;8.65;100.00;102635.28;5316540;28;20039;-85
2022/10/11 07:17:26;;;;;;;97.38;50.50;;;;;;;8.66;100.00;102644.13;5319538;27;20066;-86
2022/10/11 07:19:58;;;;;;;504.80;93.60;;;;;;;8.65;100.00;102639.78;5315088;27;20040;-85
2022/10/11 07:22:29;;;;;;;69.03;39.38;;;;;;;8.75;100.00;102627.66;5315989;28;20477;-84
2022/10/11 07:25:01;;;;;;;87.57;38.55;;;;;;;9.03;100.00;102639.41;5318568;27;20031;-85
2022/10/11 07:27:33;;;;;;;42.20;28.73;;;;;;;9.55;100.00;102648.78;5318966;27;20159;-86
2022/10/11 07:30:05;;;;;;;39.55;23.15;;;;;;;9.75;100.00;102655.59;5310577;27;20081;-85
2022/10/11 07:32:36;;;;;;;20.13;15.23;;;;;;;10.08;100.00;102662.47;5314119;27;20039;-85
2022/10/11 07:35:08;;;;;;;20.77;11.73;;;;;;;10.27;100.00;102659.50;5313197;27;20406;-85
2022/10/11 07:37:39;;;;;;;21.48;9.80;;;;;;;10.67;100.00;102657.00;5318773;27;20032;-84
2022/10/11 07:40:11;;;;;;;15.60;8.20;;;;;;;10.84;100.00;102661.28;5316298;27;20033;-85
2022/10/11 07:42:42;;;;;;;13.48;7.13;;;;;;;10.69;100.00;102636.41;5311826;27;20032;-81
2022/10/11 07:45:19;;;;;;;13.52;6.13;;;;;;;11.32;100.00;102664.31;5317153;27;20389;-87
2022/10/11 07:48:05;;;;;;;14.27;6.93;;;;;;;12.54;100.00;102664.78;5319021;27;20024;-86
2022/10/11 07:50:39;;;;;;;10.70;5.25;;;;;;;13.63;100.00;102661.19;5323715;27;20029;-86
2022/10/11 07:53:14;;;;;;;11.52;5.20;;;;;;;14.43;100.00;102648.69;5331078;27;20023;-87
2022/10/11 07:55:46;;;;;;;12.52;4.82;;;;;;;15.22;100.00;102645.84;5330166;27;20036;-86
2022/10/11 07:58:17;;;;;;;11.63;4.65;;;;;;;15.64;100.00;102646.69;5319577;27;20097;-87
2022/10/11 08:00:55;;;;;;;7.97;3.97;;;;;;;15.59;100.00;102632.78;5308240;27;20027;-87
2022/10/11 08:03:26;;;;;;;11.82;4.05;;;;;;;15.71;100.00;102644.34;5323971;27;20028;-86
2022/10/11 08:06:03;;;;;;;11.07;3.70;;;;;;;16.39;100.00;102650.06;5324874;27;20039;-86
2022/10/11 08:08:39;;;;;;;9.55;3.85;;;;;;;16.14;100.00;102619.06;5325390;27;20385;-86
2022/10/11 08:11:28;;;;;;;9.65;4.00;;;;;;;16.58;100.00;102626.84;5323777;27;20409;-86
2022/10/11 08:14:03;;;;;;;9.63;4.22;;;;;;;16.68;100.00;102648.44;5342038;27;20032;-87
2022/10/11 08:16:39;;;;;;;10.52;3.70;;;;;;;17.57;100.00;102659.97;5342940;27;20061;-86
2022/10/11 08:19:13;;;;;;;12.27;4.45;;;;;;;17.68;100.00;102645.44;5346673;27;20024;-86
2022/10/11 08:21:47;;;;;;;11.70;5.00;;;;;;;18.00;100.00;102654.22;5346857;27;20035;-86
2022/10/11 08:24:24;;;;;;;14.70;4.03;;;;;;;18.35;100.00;102648.09;5321790;27;20119;-87
2022/10/11 08:26:55;;;;;;;;;;;;;;;20.96;100.00;102662.84;5326894;27;20384;-86
2022/10/11 08:29:27;;;;;;;8.18;3.72;;;;;;;19.33;100.00;102647.44;5345863;27;19911;-87
2022/10/11 08:31:58;;;;;;;10.02;3.80;;;;;;;19.76;100.00;102670.13;5315298;27;20024;-87
2022/10/11 08:34:30;;;;;;;12.00;3.50;;;;;;;20.48;100.00;102651.69;5352487;27;20065;-87
2022/10/11 08:37:04;;;;;;;8.73;3.10;;;;;;;20.89;100.00;102657.22;5362093;27;20073;-85
2022/10/11 08:39:35;;;;;;;7.25;3.83;;;;;;;21.10;100.00;102673.00;5331473;27;20020;-87
2022/10/11 08:42:13;;;;;;;11.15;3.20;;;;;;;22.64;100.00;102644.88;5327113;27;20089;-87
2022/10/11 08:45:01;;;;;;;11.07;3.40;;;;;;;22.83;100.00;102659.88;5336217;27;20032;-84
2022/10/11 08:47:43;;;;;;;11.50;3.33;;;;;;;22.52;100.00;102651.72;5346101;27;20023;-86
2022/10/11 08:50:21;;;;;;;7.53;3.00;;;;;;;23.08;100.00;102669.78;5332016;27;20138;-87
2022/10/11 08:53:10;;;;;;;8.80;2.88;;;;;;;23.25;100.00;102668.63;5330235;27;20397;-87
2022/10/11 08:55:53;;;;;;;8.00;3.20;;;;;;;24.33;100.00;102663.78;5324560;27;20057;-86
2022/10/11 08:58:45;;;;;;;7.22;3.33;;;;;;;25.51;100.00;102672.63;5346565;27;20028;-86
2022/10/11 09:01:24;;;;;;;7.28;2.92;;;;;;;25.63;100.00;102676.50;5347755;27;20106;-86
2022/10/11 09:03:59;;;;;;;9.88;3.20;;;;;;;25.72;97.93;102674.47;5348863;27;20028;-84
2022/10/11 09:07:03;;;;;;;9.32;2.70;;;;;;;27.31;100.00;102678.94;5339915;27;20030;-84
2022/10/11 09:09:41;;;;;;;7.28;2.53;;;;;;;28.55;71.96;102687.34;5323993;27;20025;-84
2022/10/11 09:12:20;;;;;;;7.45;2.60;;;;;;;28.59;61.69;102683.06;5309406;27;20127;-85
2022/10/11 09:15:19;;;;;;;7.85;2.10;;;;;;;30.53;66.82;102670.38;5344770;27;20027;-84
2022/10/11 09:18:16;;;;;;;11.70;2.50;;;;;;;28.71;57.69;102676.91;5347170;27;20438;-84
2022/10/11 09:21:34;;;;;;;9.05;2.65;;;;;;;28.81;55.84;102689.09;5329800;27;20040;-84
2022/10/11 09:24:35;;;;;;;8.20;2.88;;;;;;;27.48;69.85;102684.81;5225922;28;20100;-84
2022/10/11 09:27:25;;;;;;;7.32;2.45;;;;;;;27.04;75.01;102682.66;5354031;27;20160;-84
2022/10/11 09:30:05;;;;;;;6.28;2.00;;;;;;;26.45;58.50;102670.47;5354479;27;20027;-84
2022/10/11 09:32:43;;;;;;;8.27;2.30;;;;;;;26.51;57.26;102689.63;5339420;27;20098;-84
2022/10/11 09:35:21;;;;;;;14.57;2.70;;;;;;;25.91;61.01;102670.19;5324453;27;20064;-85
2022/10/11 09:38:30;;;;;;;10.23;2.75;;;;;;;26.82;79.20;102662.81;5315446;27;20023;-84
2022/10/11 09:41:19;;;;;;;15.88;2.70;;;;;;;27.35;57.60;102682.91;5326606;27;20020;-84
2022/10/11 09:43:51;;;;;;;10.18;2.70;;;;;;;26.94;61.64;102683.06;5309553;28;20347;-85
2022/10/11 09:46:33;;;;;;;11.18;3.00;;;;;;;28.12;51.47;102681.56;5331336;27;20039;-84
2022/10/11 09:49:13;;;;;;;10.68;2.70;;;;;;;30.75;48.81;102667.09;5330752;27;20064;-84
2022/10/11 09:51:52;;;;;;;8.65;2.47;;;;;;;29.15;44.13;102686.13;5345039;27;20020;-84
2022/10/11 09:54:38;;;;;;;13.45;2.40;;;;;;;30.52;46.57;102664.03;5340923;27;20054;-84
2022/10/11 09:57:25;;;;;;;10.85;2.55;;;;;;;30.95;39.78;102681.44;5348504;27;20027;-84
2022/10/11 10:00:22;;;;;;;7.45;2.63;;;;;;;32.29;37.99;102681.81;5311743;27;20028;-84
2022/10/11 10:02:59;;;;;;;9.80;2.58;;;;;;;32.72;39.22;102677.72;5321132;27;20488;-84
2022/10/11 10:05:34;;;;;;;8.82;2.20;;;;;;;32.40;29.03;102678.19;5347304;27;20024;-84
2022/10/11 10:08:21;;;;;;;9.38;2.10;;;;;;;32.14;31.56;102674.91;5346886;27;20019;-85
2022/10/11 10:10:55;;;;;;;6.35;2.15;;;;;;;32.97;31.50;102680.94;5334613;27;20043;-84
2022/10/11 10:13:44;;;;;;;5.90;1.97;;;;;;;34.36;31.70;102677.47;5324742;28;20048;-84
2022/10/11 10:16:31;;;;;;;5.68;1.67;;;;;;;34.48;29.41;102672.63;5325406;28;20060;-84
2022/10/11 10:19:20;;;;;;;5.95;1.95;;;;;;;33.99;32.07;102677.28;5329097;28;20024;-84
2022/10/11 10:21:54;;;;;;;7.78;1.77;;;;;;;33.99;26.41;102658.72;5330057;28;20103;-84
2022/10/11 10:24:31;;;;;;;6.53;1.80;;;;;;;34.03;29.31;102668.22;5329947;27;20131;-84
2022/10/11 10:27:22;;;;;;;6.97;2.30;;;;;;;35.08;26.60;102658.78;5329741;27;20535;-84
2022/10/11 10:30:12;;;;;;;11.25;2.13;;;;;;;36.25;28.64;102665.34;5322075;28;20059;-84
2022/10/11 10:32:54;;;;;;;6.50;1.70;;;;;;;35.36;24.94;102663.22;5314814;27;20039;-84
2022/10/11 10:35:31;;;;;;;6.20;2.03;;;;;;;36.20;23.67;102668.94;5325728;27;20032;-84
2022/10/11 10:38:18;;;;;;;7.00;2.35;;;;;;;35.82;26.02;102661.81;5325020;27;20028;-85
2022/10/11 10:40:52;;;;;;;10.40;2.30;;;;;;;33.47;23.60;102664.59;5324477;27;20416;-84
2022/10/11 10:43:27;;;;;;;8.50;2.40;;;;;;;34.23;23.30;102664.03;5321757;27;20035;-84
2022/10/11 10:46:02;;;;;;;6.53;1.80;;;;;;;34.67;22.91;102662.00;5315373;27;20509;-84
2022/10/11 10:48:38;;;;;;;;;;;;;;;39.98;21.22;102669.56;5322438;27;20034;-85
2022/10/11 10:51:27;;;;;;;7.82;2.40;;;;;;;36.44;23.30;102660.97;5325898;27;19912;-84
2022/10/11 10:54:13;;;;;;;6.57;2.00;;;;;;;34.96;25.56;102653.44;5331710;27;20020;-85
2022/10/11 10:57:03;;;;;;;8.07;2.05;;;;;;;36.53;26.08;102658.47;5320239;27;20044;-84
2022/10/11 10:59:53;;;;;;;6.60;1.85;;;;;;;37.94;23.93;102651.41;5323293;27;20024;-84
2022/10/11 11:02:42;;;;;;;9.52;2.40;;;;;;;36.83;23.38;102642.97;5324470;27;20036;-85
2022/10/11 11:05:25;;;;;;;8.25;2.33;;;;;;;35.99;24.67;102654.13;5325372;27;20028;-85
2022/10/11 11:08:14;;;;;;;8.27;2.15;;;;;;;36.41;23.00;102646.78;5305897;27;20036;-85
2022/10/11 11:10:56;;;;;;;6.97;1.95;;;;;;;36.92;20.72;102652.41;5324696;27;20028;-85
2022/10/11 11:13:45;;;;;;;7.45;1.90;;;;;;;37.58;19.19;102645.13;5305256;27;20040;-85
2022/10/11 11:16:31;;;;;;;7.15;2.17;;;;;;;37.20;21.49;102642.69;5325762;28;20109;-85
2022/10/11 11:19:39;;;;;;;8.48;2.17;;;;;;;38.51;20.22;102643.56;5324520;28;20036;-84
2022/10/11 11:22:20;;;;;;;6.88;1.85;;;;;;;37.51;20.25;102637.06;5318772;27;20463;-85
2022/10/11 11:24:51;;;;;;;10.40;2.47;;;;;;;38.81;17.28;102636.13;5318924;27;20137;-85
2022/10/11 11:27:44;;;;;;;8.37;2.40;;;;;;;39.37;19.41;102636.75;5324750;27;20499;-85
2022/10/11 11:30:44;;;;;;;6.78;2.10;;;;;;;38.72;19.81;102635.91;5321318;28;20064;-84
2022/10/11 11:33:53;;;;;;;8.80;2.28;;;;;;;38.35;19.27;102628.91;5321674;27;20036;-85
2022/10/11 11:36:46;;;;;;;7.57;1.77;;;;;;;38.71;20.68;102623.13;5313974;27;20507;-85
2022/10/11 11:39:21;;;;;;;9.02;2.00;;;;;;;38.85;18.05;102620.50;5320390;27;20142;-84
2022/10/11 11:42:12;;;;;;;10.10;2.35;;;;;;;38.63;18.68;102615.38;5324694;27;20444;-84
2022/10/11 11:44:49;;;;;;;6.82;1.75;;;;;;;39.67;16.69;102614.06;5319304;27;20103;-84
2022/10/11 11:47:39;;;;;;;7.15;2.28;;;;;;;39.84;18.81;102602.38;5325501;27;20028;-85
2022/10/11 11:50:21;;;;;;;14.07;2.80;;;;;;;39.98;18.52;102602.50;5324886;27;20424;-84
2022/10/11 11:52:58;;;;;;;8.45;2.30;;;;;;;37.56;21.08;102600.88;5334636;27;20501;-85
2022/10/11 11:55:50;;;;;;;6.05;1.85;;;;;;;39.13;18.64;102593.75;5337008;27;20036;-85
2022/10/11 11:58:44;;;;;;;7.32;2.25;;;;;;;39.70;17.38;102593.09;5323428;27;20031;-85
2022/10/11 12:01:37;;;;;;;9.75;2.67;;;;;;;39.08;16.90;102587.38;5324444;27;20043;-85
2022/10/11 12:04:20;;;;;;;7.47;2.17;;;;;;;39.60;16.70;102591.25;5321823;27;20120;-85
2022/10/11 12:07:16;;;;;;;8.48;2.47;;;;;;;39.57;17.83;102583.50;5305826;27;20020;-85
2022/10/11 12:09:53;;;;;;;5.97;1.63;;;;;;;38.54;18.26;102575.28;5307244;27;20024;-85
2022/10/11 12:12:29;;;;;;;7.93;2.13;;;;;;;37.68;19.64;102575.53;5321001;27;20147;-85
2022/10/11 12:15:09;;;;;;;8.23;2.00;;;;;;;38.21;18.63;102569.41;5317582;27;20036;-84
2022/10/11 12:17:56;;;;;;;6.22;1.80;;;;;;;39.22;18.58;102568.81;5330637;27;20027;-85
2022/10/11 12:20:40;;;;;;;5.60;2.50;;;;;;;38.22;17.86;102568.25;5347927;27;20028;-85
2022/10/11 12:23:17;;;;;;;8.98;2.00;;;;;;;38.46;19.51;102571.16;5332311;27;20037;-86
2022/10/11 12:26:17;;;;;;;7.57;2.03;;;;;;;39.82;18.35;102571.16;5346533;27;20039;-85
2022/10/11 12:29:20;;;;;;;7.68;2.22;;;;;;;39.66;18.16;102581.69;5312578;27;20059;-86
2022/10/11 12:31:57;;;;;;;5.78;1.77;;;;;;;38.89;18.46;102570.53;5347549;27;20020;-86
2022/10/11 12:34:39;;;;;;;6.78;1.92;;;;;;;38.34;17.75;102570.69;5342868;27;20342;-85
2022/10/11 12:37:22;;;;;;;6.50;2.20;;;;;;;37.74;20.26;102565.19;5332262;27;20020;-85
2022/10/11 12:39:55;;;;;;;6.15;1.85;;;;;;;37.64;18.79;102563.28;5345573;27;20031;-85
2022/10/11 12:42:32;;;;;;;7.38;2.00;;;;;;;37.12;20.05;102567.28;5327321;27;20028;-85
2022/10/11 12:45:09;;;;;;;8.18;1.80;;;;;;;38.11;18.76;102572.25;5322941;27;20082;-85
2022/10/11 12:47:47;;;;;;;6.75;2.10;;;;;;;37.56;18.15;102558.31;5324553;28;20505;-85
2022/10/11 12:50:53;;;;;;;7.80;2.17;;;;;;;38.46;18.05;102556.41;5328894;27;20015;-85
2022/10/11 12:53:37;;;;;;;6.07;2.05;;;;;;;37.91;18.82;102560.09;5337495;27;20520;-85
2022/10/11 12:56:25;;;;;;;7.05;2.15;;;;;;;37.18;19.76;102555.09;5330458;27;20035;-85
2022/10/11 12:59:02;;;;;;;12.95;2.80;;;;;;;36.85;20.38;102549.00;5342904;27;20031;-86
2022/10/11 13:01:46;;;;;;;5.30;1.85;;;;;;;36.40;18.93;102553.44;5336751;27;20611;-85
2022/10/11 13:04:21;;;;;;;6.85;2.22;;;;;;;36.18;19.84;102543.38;5328526;27;20038;-86
2022/10/11 13:07:01;;;;;;;7.97;2.10;;;;;;;36.34;18.33;102549.81;5344694;27;20485;-85
2022/10/11 13:09:38;;;;;;;5.18;1.60;;;;;;;37.21;17.99;102544.22;5331048;27;20023;-85